Almería International Airport

Airport
ICAO code: 
LEAM
IATA Code: 
LEI
Summary
ICAO Region: 
EUR
Territory: 
Location: 
, Andalucia
Serving: 
Almeria
Elevation: 
70 ft
Coordinates: 
Aerial View: 
36° 50' 38.17" N, 2° 22' 12.349" W
Metar
Observation
LEAM 281700Z 32009KT CAVOK 15/M07 Q1016
Station
Almeria / Aeropuerto
Date/Time
2021-11-28 17:00:00
Wind direction
320°
Wind speed
09 kts
Lowest cloud amount
clouds and visibility OK
Temperature
15°C
Dew point
-7°C
Humidity
21%
QNH
1016 hPa
Weather condition
n/a

Runways

Designator Length Width Surface Rops
8/26 3200 45 ASP Yes/Yes
Airport map: 
Aerial View: 

SKYbrary Partners:

Safety knowledge contributed by: